createdAt,value
2018-06-15T00:01:01.321Z,84.18
2018-06-15T00:03:30.000Z,84.37
2018-06-15T00:05:58.595Z,84.30
2018-06-15T00:08:27.201Z,84.22
2018-06-15T00:10:55.761Z,83.60
2018-06-15T00:13:24.440Z,83.58
2018-06-15T00:15:53.109Z,84.61
2018-06-15T00:18:21.980Z,84.96
2018-06-15T00:20:50.641Z,84.53
2018-06-15T00:23:19.372Z,85.69
2018-06-15T00:25:47.977Z,85.43
2018-06-15T00:28:16.560Z,85.39
2018-06-15T00:30:45.172Z,85.85
2018-06-15T00:33:13.815Z,85.37
2018-06-15T00:35:42.377Z,85.34
2018-06-15T00:38:10.980Z,85.31
2018-06-15T00:40:39.625Z,85.97
2018-06-15T00:43:08.357Z,85.33
2018-06-15T00:45:36.973Z,86.10
2018-06-15T00:48:05.568Z,85.91
2018-06-15T00:50:34.363Z,85.18
2018-06-15T00:53:03.027Z,85.24
2018-06-15T00:55:31.776Z,85.16
2018-06-15T00:58:00.768Z,85.05
2018-06-15T01:00:29.415Z,85.25
2018-06-15T01:02:57.996Z,84.94
2018-06-15T01:05:26.574Z,84.91
2018-06-15T01:07:55.378Z,85.47
2018-06-15T01:10:23.990Z,84.91
2018-06-15T01:12:52.552Z,85.34
2018-06-15T01:15:21.407Z,85.38
2018-06-15T01:17:50.038Z,84.83
2018-06-15T01:20:18.636Z,84.68
2018-06-15T01:22:47.205Z,84.71
2018-06-15T01:25:15.953Z,84.86
2018-06-15T01:27:44.566Z,84.71
2018-06-15T01:30:13.185Z,85.26
2018-06-15T01:32:41.737Z,85.25
2018-06-15T01:35:10.360Z,84.85
2018-06-15T01:37:38.977Z,85.47
2018-06-15T01:40:07.687Z,85.82
2018-06-15T01:42:36.284Z,85.64
2018-06-15T01:45:04.941Z,86.25
2018-06-15T01:47:33.568Z,85.36
2018-06-15T01:50:02.125Z,86.07
2018-06-15T01:52:30.740Z,85.99
2018-06-15T01:54:59.349Z,85.85
2018-06-15T01:57:27.968Z,86.20
2018-06-15T01:59:56.736Z,86.60
2018-06-15T02:02:25.409Z,87.46
2018-06-15T02:04:54.020Z,87.40
2018-06-15T02:07:22.620Z,87.37
2018-06-15T02:09:51.565Z,86.51
2018-06-15T02:12:21.865Z,86.69
2018-06-15T02:14:50.508Z,87.04
2018-06-15T02:17:19.210Z,86.50
2018-06-15T02:19:47.847Z,86.24
2018-06-15T02:22:16.473Z,85.84
2018-06-15T02:24:45.271Z,85.67
2018-06-15T02:27:13.823Z,85.16
2018-06-15T02:29:43.462Z,85.66
2018-06-15T02:32:12.118Z,85.28
2018-06-15T02:34:40.804Z,85.42
2018-06-15T02:37:09.386Z,86.01
2018-06-15T02:39:38.053Z,86.11
2018-06-15T02:42:06.663Z,85.04
2018-06-15T02:44:35.285Z,85.54
2018-06-15T02:47:04.086Z,85.57
2018-06-15T02:49:32.685Z,85.66
2018-06-15T02:52:01.448Z,85.03
2018-06-15T02:54:30.327Z,85.01
2018-06-15T02:56:58.992Z,84.75
2018-06-15T02:59:27.689Z,85.44
2018-06-15T03:01:56.457Z,84.90
2018-06-15T03:04:25.233Z,84.98
2018-06-15T03:06:54.124Z,85.34
2018-06-15T03:09:22.760Z,84.77
2018-06-15T03:11:51.408Z,85.20
2018-06-15T03:14:20.133Z,85.45
2018-06-15T03:16:48.902Z,85.35
2018-06-15T03:19:17.491Z,85.24
2018-06-15T03:21:46.425Z,85.93
2018-06-15T03:24:15.042Z,85.87
2018-06-15T03:26:44.105Z,85.57
2018-06-15T03:29:12.657Z,85.96
2018-06-15T03:31:41.517Z,85.50
2018-06-15T03:34:10.121Z,85.69
2018-06-15T03:36:38.776Z,85.70
2018-06-15T03:39:09.492Z,85.48
2018-06-15T03:41:38.105Z,85.45
2018-06-15T03:44:06.743Z,85.38
2018-06-15T03:46:36.990Z,85.79
2018-06-15T03:49:05.639Z,85.73
2018-06-15T03:51:34.462Z,85.02
2018-06-15T03:54:03.613Z,85.46
2018-06-15T03:56:32.604Z,85.14
2018-06-15T03:59:01.146Z,85.32
2018-06-15T04:01:29.764Z,85.99
2018-06-15T04:03:58.389Z,85.94
2018-06-15T04:06:27.040Z,85.97
2018-06-15T04:08:55.790Z,85.89
2018-06-15T04:11:24.429Z,85.19
2018-06-15T04:13:53.033Z,85.59
2018-06-15T04:16:21.585Z,85.24
2018-06-15T04:18:50.201Z,85.51
2018-06-15T04:21:18.880Z,85.37
2018-06-15T04:23:47.464Z,85.03
2018-06-15T04:26:16.029Z,85.41
2018-06-15T04:28:44.625Z,85.41
2018-06-15T04:31:13.209Z,85.18
2018-06-15T04:33:41.819Z,85.13
2018-06-15T04:36:10.444Z,85.17
2018-06-15T04:38:38.976Z,85.81
2018-06-15T04:41:07.821Z,86.55
2018-06-15T04:43:36.395Z,85.71
2018-06-15T04:46:05.133Z,85.81
2018-06-15T04:48:33.704Z,86.73
2018-06-15T04:51:02.491Z,86.26
2018-06-15T04:53:31.182Z,86.23
2018-06-15T04:55:59.793Z,86.91
2018-06-15T04:58:28.431Z,87.41
2018-06-15T05:00:57.056Z,86.34
2018-06-15T05:03:25.888Z,86.52
2018-06-15T05:05:54.568Z,86.32
2018-06-15T05:08:23.184Z,86.78
2018-06-15T05:10:51.806Z,86.08
2018-06-15T05:13:20.384Z,86.28
2018-06-15T05:15:49.090Z,86.23
2018-06-15T05:18:18.869Z,85.43
2018-06-15T05:20:47.488Z,84.02
2018-06-15T05:23:16.140Z,83.93
2018-06-15T05:25:44.750Z,83.71
2018-06-15T05:28:13.340Z,83.74
2018-06-15T05:30:42.067Z,82.81
2018-06-15T05:33:10.896Z,82.68
2018-06-15T05:35:39.512Z,82.60
2018-06-15T05:38:08.111Z,82.94
2018-06-15T05:40:36.800Z,85.16
2018-06-15T05:43:05.503Z,86.15
2018-06-15T05:45:34.104Z,86.35
2018-06-15T05:48:02.816Z,85.92
2018-06-15T05:50:31.421Z,86.11
2018-06-15T05:53:00.209Z,86.80
2018-06-15T05:55:28.951Z,85.85
2018-06-15T05:57:57.713Z,86.12
2018-06-15T06:00:26.427Z,85.94
2018-06-15T06:02:55.319Z,86.00
2018-06-15T06:05:23.918Z,85.87
2018-06-15T06:07:52.951Z,85.29
2018-06-15T06:10:21.720Z,85.54
2018-06-15T06:12:50.578Z,85.23
2018-06-15T06:15:19.172Z,84.97
2018-06-15T06:17:47.924Z,84.39
2018-06-15T06:20:16.545Z,84.26
2018-06-15T06:22:45.112Z,83.87
2018-06-15T06:25:13.992Z,82.08
2018-06-15T06:27:42.548Z,81.84
2018-06-15T06:30:11.196Z,81.42
2018-06-15T06:32:39.899Z,80.86
2018-06-15T06:35:08.532Z,80.31
2018-06-15T06:37:37.106Z,81.31
2018-06-15T06:40:05.729Z,80.67
2018-06-15T06:42:34.344Z,81.88
2018-06-15T06:45:02.888Z,81.28
2018-06-15T06:47:31.523Z,81.74
2018-06-15T06:50:00.091Z,81.79
2018-06-15T06:52:28.701Z,80.89
2018-06-15T06:54:57.400Z,80.44
2018-06-15T06:57:26.061Z,79.50
2018-06-15T06:59:54.686Z,78.54
2018-06-15T07:02:23.257Z,78.94
2018-06-15T07:04:51.846Z,79.45
2018-06-15T07:07:20.476Z,78.56
2018-06-15T07:09:49.055Z,78.01
2018-06-15T07:12:18.055Z,77.14
2018-06-15T07:14:46.630Z,76.43
2018-06-15T07:17:15.256Z,76.39
2018-06-15T07:19:43.836Z,75.64
2018-06-15T07:22:12.468Z,76.38
2018-06-15T07:24:41.104Z,75.65
2018-06-15T07:27:09.672Z,74.87
2018-06-15T07:29:38.228Z,75.34
2018-06-15T07:32:07.539Z,75.65
2018-06-15T07:34:36.160Z,76.54
2018-06-15T07:37:04.815Z,75.97
2018-06-15T07:39:33.596Z,76.21
2018-06-15T07:42:02.278Z,77.10
2018-06-15T07:44:30.853Z,77.41
2018-06-15T07:46:59.426Z,74.32
2018-06-15T07:49:28.057Z,75.14
2018-06-15T07:51:56.672Z,74.71
2018-06-15T07:54:25.264Z,75.57
2018-06-15T07:56:53.816Z,75.29
2018-06-15T07:59:22.780Z,73.62
2018-06-15T08:01:51.369Z,74.15
2018-06-15T08:04:21.460Z,74.25
2018-06-15T08:06:50.290Z,73.83
2018-06-15T08:09:19.248Z,74.00
2018-06-15T08:11:47.844Z,74.29
2018-06-15T08:14:16.368Z,73.93
2018-06-15T08:16:44.939Z,74.11
2018-06-15T08:19:13.524Z,72.78
2018-06-15T08:21:42.124Z,72.97
2018-06-15T08:24:10.836Z,72.92
2018-06-15T08:26:39.440Z,71.95
2018-06-15T08:29:07.959Z,72.54
2018-06-15T08:31:36.668Z,72.73
2018-06-15T08:34:05.294Z,70.24
2018-06-15T08:36:34.019Z,70.63
2018-06-15T08:39:02.717Z,70.62
2018-06-15T08:41:31.270Z,69.85
2018-06-15T08:43:59.868Z,70.42
2018-06-15T08:46:28.539Z,71.08
2018-06-15T08:48:57.113Z,69.84
2018-06-15T08:51:25.710Z,69.95
2018-06-15T08:53:54.364Z,69.97
2018-06-15T08:56:22.970Z,70.75
2018-06-15T08:58:51.611Z,69.21
2018-06-15T09:01:20.177Z,70.35
2018-06-15T09:03:48.779Z,70.23
2018-06-15T09:06:17.340Z,70.91
2018-06-15T09:08:45.973Z,70.20
2018-06-15T09:11:14.557Z,70.09
2018-06-15T09:13:43.167Z,70.62
2018-06-15T09:16:11.804Z,69.98
2018-06-15T09:18:40.537Z,69.91
2018-06-15T09:21:09.099Z,69.67
2018-06-15T09:23:37.704Z,67.83
2018-06-15T09:26:06.356Z,65.39
2018-06-15T09:28:35.043Z,66.24
2018-06-15T09:31:03.761Z,66.46
2018-06-15T09:33:32.335Z,66.08
2018-06-15T09:36:00.963Z,65.54
2018-06-15T09:38:29.629Z,65.28
2018-06-15T09:40:58.539Z,64.40
2018-06-15T09:43:27.152Z,63.54
2018-06-15T09:45:55.820Z,64.26
2018-06-15T09:48:24.405Z,63.55
2018-06-15T09:50:53.088Z,61.98
2018-06-15T09:53:21.696Z,61.94
2018-06-15T09:55:50.307Z,58.92
2018-06-15T09:58:18.882Z,60.03
2018-06-15T10:00:50.380Z,61.76
2018-06-15T10:03:18.946Z,62.90
2018-06-15T10:05:47.762Z,60.58
2018-06-15T10:08:16.361Z,60.94
2018-06-15T10:10:45.052Z,61.23
2018-06-15T10:13:13.676Z,60.64
2018-06-15T10:15:42.364Z,61.31
2018-06-15T10:18:10.944Z,62.31
2018-06-15T10:20:39.664Z,62.56
2018-06-15T10:23:08.272Z,62.18
2018-06-15T10:25:36.860Z,61.05
2018-06-15T10:28:05.697Z,59.38
2018-06-15T10:30:34.294Z,60.16
2018-06-15T10:33:02.970Z,59.48
2018-06-15T10:35:31.483Z,58.86
2018-06-15T10:38:00.109Z,57.91
2018-06-15T10:40:28.816Z,58.12
2018-06-15T10:42:57.440Z,56.41
2018-06-15T10:45:26.037Z,56.88
2018-06-15T10:47:54.849Z,56.06
2018-06-15T10:50:23.435Z,54.87
2018-06-15T10:52:52.233Z,54.49
2018-06-15T10:55:20.822Z,54.11
2018-06-15T10:57:49.437Z,54.94
2018-06-15T11:00:18.128Z,53.41
2018-06-15T11:02:46.744Z,53.79
2018-06-15T11:05:15.365Z,54.88
2018-06-15T11:07:43.951Z,54.94
2018-06-15T11:10:12.769Z,54.39
2018-06-15T11:12:41.344Z,54.78
2018-06-15T11:15:10.031Z,54.69
2018-06-15T11:17:38.702Z,54.97
2018-06-15T11:20:07.335Z,54.48
2018-06-15T11:22:35.876Z,53.48
2018-06-15T11:25:04.619Z,54.52
2018-06-15T11:27:33.201Z,55.55
2018-06-15T11:30:01.834Z,55.61
2018-06-15T11:32:30.425Z,53.05
2018-06-15T11:34:59.035Z,52.04
2018-06-15T11:37:27.585Z,51.67
2018-06-15T11:39:56.192Z,52.87
2018-06-15T11:42:24.995Z,52.44
2018-06-15T11:44:54.011Z,51.82
2018-06-15T11:47:22.643Z,50.97
2018-06-15T11:49:51.281Z,51.99
2018-06-15T11:52:19.852Z,53.19
2018-06-15T11:54:48.447Z,53.37
2018-06-15T11:57:17.101Z,54.15
2018-06-15T11:59:45.742Z,54.16
2018-06-15T12:02:14.320Z,53.71
2018-06-15T12:04:42.887Z,53.46
2018-06-15T12:07:11.460Z,51.19
2018-06-15T12:09:40.059Z,50.65
2018-06-15T12:12:08.689Z,50.70
2018-06-15T12:14:37.300Z,50.61
2018-06-15T12:17:06.039Z,50.67
2018-06-15T12:19:34.667Z,52.50
2018-06-15T12:22:03.269Z,53.31
2018-06-15T12:24:31.815Z,52.55
2018-06-15T12:27:00.448Z,50.51
2018-06-15T12:29:29.016Z,49.33
2018-06-15T12:31:57.678Z,49.37
2018-06-15T12:34:26.251Z,49.89
2018-06-15T12:36:54.950Z,48.77
2018-06-15T12:39:23.460Z,47.91
2018-06-15T12:41:52.071Z,47.26
2018-06-15T12:44:20.728Z,46.78
2018-06-15T12:46:49.345Z,48.02
2018-06-15T12:49:17.948Z,47.25
2018-06-15T12:51:46.593Z,47.42
2018-06-15T12:54:15.244Z,45.95
2018-06-15T12:56:43.854Z,48.43
2018-06-15T12:59:12.531Z,46.08
2018-06-15T13:01:41.074Z,44.05
2018-06-15T13:04:09.707Z,45.31
2018-06-15T13:06:38.354Z,48.08
2018-06-15T13:09:08.590Z,48.78
2018-06-15T13:11:37.303Z,49.86
2018-06-15T13:14:06.027Z,51.51
2018-06-15T13:16:34.912Z,50.06
2018-06-15T13:19:03.838Z,50.10
2018-06-15T13:21:32.430Z,50.69
2018-06-15T13:24:01.083Z,51.63
2018-06-15T13:26:29.695Z,51.36
2018-06-15T13:28:58.335Z,51.17
2018-06-15T13:31:27.052Z,51.98
2018-06-15T13:33:55.763Z,50.27
2018-06-15T13:36:24.736Z,49.51
2018-06-15T13:38:53.405Z,49.27
2018-06-15T13:41:22.052Z,49.28
2018-06-15T13:43:50.643Z,47.87
2018-06-15T13:46:19.262Z,48.72
2018-06-15T13:48:48.125Z,48.51
2018-06-15T13:51:16.722Z,49.04
2018-06-15T13:53:45.285Z,49.78
2018-06-15T13:56:13.848Z,51.96
2018-06-15T13:58:42.404Z,49.98
2018-06-15T14:01:10.982Z,49.57
2018-06-15T14:03:39.598Z,50.56
2018-06-15T14:06:08.326Z,49.59
2018-06-15T14:08:36.864Z,49.24
2018-06-15T14:11:05.732Z,47.77
2018-06-15T14:13:34.317Z,47.68
2018-06-15T14:16:02.985Z,46.37
2018-06-15T14:18:31.560Z,45.05
2018-06-15T14:21:00.503Z,43.71
2018-06-15T14:23:29.088Z,44.28
2018-06-15T14:25:57.643Z,44.01
2018-06-15T14:28:26.268Z,44.79
2018-06-15T14:30:54.849Z,42.84
2018-06-15T14:33:23.503Z,43.04
2018-06-15T14:35:52.093Z,43.06
2018-06-15T14:38:20.748Z,43.57
2018-06-15T14:40:49.395Z,45.53
2018-06-15T14:43:18.033Z,46.05
2018-06-15T14:45:46.689Z,47.16
2018-06-15T14:48:15.322Z,45.82
2018-06-15T14:50:43.885Z,47.38
2018-06-15T14:53:12.485Z,46.74
2018-06-15T14:55:41.144Z,47.27
2018-06-15T14:58:10.276Z,47.11
2018-06-15T15:00:38.860Z,46.62
2018-06-15T15:03:07.532Z,46.72
2018-06-15T15:05:36.129Z,46.69
2018-06-15T15:08:05.721Z,46.99
2018-06-15T15:10:34.380Z,47.26
2018-06-15T15:13:02.995Z,46.17
2018-06-15T15:15:31.695Z,46.89
2018-06-15T15:18:00.410Z,47.05
2018-06-15T15:20:29.032Z,46.58
2018-06-15T15:22:57.656Z,45.82
2018-06-15T15:25:26.340Z,47.36
2018-06-15T15:27:55.079Z,46.81
2018-06-15T15:30:23.740Z,47.29
2018-06-15T15:32:52.320Z,45.82
2018-06-15T15:35:20.898Z,44.59
2018-06-15T15:37:49.653Z,43.04
2018-06-15T15:40:18.290Z,43.74
2018-06-15T15:42:47.024Z,43.70
2018-06-15T15:45:15.768Z,43.87
2018-06-15T15:47:44.645Z,43.03
2018-06-15T15:50:13.217Z,42.67
2018-06-15T15:52:41.952Z,43.52
2018-06-15T15:55:10.689Z,44.25
2018-06-15T15:57:39.431Z,44.94
2018-06-15T16:00:08.176Z,44.76
2018-06-15T16:02:36.870Z,43.91
2018-06-15T16:05:05.572Z,44.29
2018-06-15T16:07:34.224Z,43.87
2018-06-15T16:10:02.919Z,42.43
2018-06-15T16:12:31.489Z,40.37
2018-06-15T16:15:00.191Z,42.00
2018-06-15T16:17:28.995Z,43.36
2018-06-15T16:19:57.798Z,42.75
2018-06-15T16:22:26.385Z,41.76
2018-06-15T16:24:55.123Z,41.72
2018-06-15T16:27:23.819Z,40.42
2018-06-15T16:29:52.585Z,40.68
2018-06-15T16:32:21.217Z,39.35
2018-06-15T16:34:49.856Z,40.06
2018-06-15T16:37:18.783Z,39.21
2018-06-15T16:39:47.495Z,40.12
2018-06-15T16:42:16.124Z,40.39
2018-06-15T16:44:45.017Z,39.91
2018-06-15T16:47:13.814Z,39.99
2018-06-15T16:49:42.612Z,40.01
2018-06-15T16:52:11.280Z,40.30
2018-06-15T16:54:40.033Z,40.27
2018-06-15T16:57:08.646Z,38.37
2018-06-15T16:59:37.264Z,41.17
2018-06-15T17:02:06.067Z,40.98
2018-06-15T17:04:34.650Z,39.24
2018-06-15T17:07:03.225Z,39.27
2018-06-15T17:09:31.904Z,38.90
2018-06-15T17:12:00.561Z,38.57
2018-06-15T17:14:29.299Z,38.64
2018-06-15T17:16:57.876Z,38.04
2018-06-15T17:19:26.749Z,38.53
2018-06-15T17:21:55.498Z,40.64
2018-06-15T17:24:24.140Z,40.72
2018-06-15T17:26:52.817Z,42.72
2018-06-15T17:29:21.482Z,42.40
2018-06-15T17:31:50.202Z,42.12
2018-06-15T17:34:18.786Z,43.01
2018-06-15T17:36:47.541Z,43.44
2018-06-15T17:39:16.466Z,43.48
2018-06-15T17:41:45.765Z,44.02
2018-06-15T17:44:14.338Z,44.91
2018-06-15T17:46:43.161Z,43.19
2018-06-15T17:49:11.825Z,43.95
2018-06-15T17:51:40.499Z,43.53
2018-06-15T17:54:09.295Z,44.18
2018-06-15T17:56:38.341Z,43.56
2018-06-15T17:59:07.180Z,44.25
2018-06-15T18:01:35.924Z,44.87
2018-06-15T18:04:04.566Z,44.55
2018-06-15T18:06:33.172Z,45.60
2018-06-15T18:09:01.922Z,45.09
2018-06-15T18:11:30.576Z,45.50
2018-06-15T18:13:59.152Z,44.67
2018-06-15T18:16:29.472Z,46.14
2018-06-15T18:18:58.229Z,46.13
2018-06-15T18:21:26.986Z,45.15
2018-06-15T18:23:55.672Z,45.21
2018-06-15T18:26:24.504Z,46.15
2018-06-15T18:28:53.240Z,45.75
2018-06-15T18:31:21.813Z,46.37
2018-06-15T18:33:50.564Z,45.70
2018-06-15T18:36:19.286Z,46.40
2018-06-15T18:38:47.964Z,47.09
2018-06-15T18:41:16.569Z,45.92
2018-06-15T18:43:45.264Z,46.06
2018-06-15T18:46:13.908Z,48.48
2018-06-15T18:48:42.493Z,47.36
2018-06-15T18:51:11.108Z,46.54
2018-06-15T18:53:39.811Z,45.99
2018-06-15T18:56:08.401Z,44.86
2018-06-15T18:58:37.000Z,44.56
2018-06-15T19:01:05.656Z,44.16
2018-06-15T19:03:34.429Z,41.60
2018-06-15T19:06:03.108Z,42.39
2018-06-15T19:08:31.711Z,39.72
2018-06-15T19:11:00.430Z,39.50
2018-06-15T19:13:28.990Z,39.44
2018-06-15T19:15:57.638Z,39.84
2018-06-15T19:18:26.550Z,41.43
2018-06-15T19:20:55.309Z,42.37
2018-06-15T19:23:23.932Z,41.77
2018-06-15T19:25:52.584Z,43.02
2018-06-15T19:28:21.260Z,44.17
2018-06-15T19:30:50.054Z,44.62
2018-06-15T19:33:18.804Z,46.16
2018-06-15T19:35:47.658Z,46.90
2018-06-15T19:38:16.386Z,47.80
2018-06-15T19:40:44.968Z,47.76
2018-06-15T19:43:13.555Z,48.64
2018-06-15T19:45:42.336Z,47.99
2018-06-15T19:48:11.004Z,48.73
2018-06-15T19:50:39.717Z,48.15
2018-06-15T19:53:08.424Z,48.79
2018-06-15T19:55:37.112Z,48.47
2018-06-15T19:58:05.903Z,48.41
2018-06-15T20:00:34.516Z,48.93
2018-06-15T20:03:03.220Z,51.44
2018-06-15T20:05:31.857Z,52.13
2018-06-15T20:08:00.872Z,53.63
2018-06-15T20:10:29.697Z,54.61
2018-06-15T20:12:58.518Z,53.38
2018-06-15T20:15:27.105Z,55.01
2018-06-15T20:17:55.774Z,56.40
2018-06-15T20:20:24.588Z,57.15
2018-06-15T20:22:53.240Z,56.94
2018-06-15T20:25:22.241Z,56.63
2018-06-15T20:27:51.041Z,57.03
2018-06-15T20:30:19.680Z,56.57
2018-06-15T20:32:48.562Z,57.07
2018-06-15T20:35:17.129Z,55.60
2018-06-15T20:37:45.832Z,56.95
2018-06-15T20:40:14.627Z,56.62
2018-06-15T20:42:43.212Z,56.77
2018-06-15T20:45:12.028Z,56.71
2018-06-15T20:47:40.904Z,57.73
2018-06-15T20:50:09.575Z,57.37
2018-06-15T20:52:38.299Z,58.01
2018-06-15T20:55:07.048Z,57.14
2018-06-15T20:57:35.718Z,57.91
2018-06-15T21:00:05.072Z,56.87
2018-06-15T21:02:33.691Z,57.50
2018-06-15T21:05:02.345Z,58.55
2018-06-15T21:07:30.935Z,58.55
2018-06-15T21:09:59.564Z,57.89
2018-06-15T21:12:28.217Z,58.90
2018-06-15T21:14:57.068Z,59.88
2018-06-15T21:17:26.145Z,58.56
2018-06-15T21:19:54.732Z,58.52
2018-06-15T21:22:23.572Z,58.07
2018-06-15T21:24:52.460Z,58.56
2018-06-15T21:27:21.069Z,59.59
2018-06-15T21:29:49.631Z,60.38
2018-06-15T21:32:18.454Z,61.28
2018-06-15T21:34:47.146Z,62.36
2018-06-15T21:37:15.909Z,61.87
2018-06-15T21:39:44.487Z,60.96
2018-06-15T21:42:13.380Z,61.86
2018-06-15T21:44:42.138Z,61.34
2018-06-15T21:47:11.016Z,61.50
2018-06-15T21:49:39.563Z,61.72
2018-06-15T21:52:08.259Z,61.35
2018-06-15T21:54:37.036Z,61.60
2018-06-15T21:57:05.916Z,61.76
2018-06-15T21:59:34.484Z,63.30
2018-06-15T22:02:03.175Z,63.19
2018-06-15T22:04:31.908Z,62.33
2018-06-15T22:07:00.728Z,62.24
2018-06-15T22:09:29.409Z,61.79
2018-06-15T22:11:58.218Z,61.57
2018-06-15T22:14:27.070Z,62.05
2018-06-15T22:16:55.617Z,62.61
2018-06-15T22:19:24.911Z,62.32
2018-06-15T22:21:54.282Z,62.23
2018-06-15T22:24:23.715Z,62.53
2018-06-15T22:26:52.681Z,63.28
2018-06-15T22:29:21.287Z,63.59
2018-06-15T22:31:50.240Z,64.20
2018-06-15T22:34:18.870Z,63.78
2018-06-15T22:36:47.529Z,65.33
2018-06-15T22:39:16.850Z,64.66
2018-06-15T22:41:45.497Z,65.25
2018-06-15T22:44:14.541Z,65.41
2018-06-15T22:46:43.601Z,65.18
2018-06-15T22:49:12.824Z,64.30
2018-06-15T22:51:42.157Z,64.59
2018-06-15T22:54:10.995Z,65.51
2018-06-15T22:56:39.599Z,66.37
2018-06-15T22:59:08.335Z,66.76
2018-06-15T23:01:36.896Z,66.33
2018-06-15T23:04:05.536Z,66.38
2018-06-15T23:06:34.302Z,66.54
2018-06-15T23:09:03.172Z,66.58
2018-06-15T23:11:31.831Z,67.51
2018-06-15T23:14:00.601Z,67.07
2018-06-15T23:16:29.255Z,67.95
2018-06-15T23:18:57.796Z,68.17
2018-06-15T23:21:26.490Z,68.44
2018-06-15T23:23:55.032Z,68.27
2018-06-15T23:26:23.677Z,68.80
2018-06-15T23:28:52.398Z,70.07
2018-06-15T23:31:20.984Z,69.58
2018-06-15T23:33:49.848Z,69.76
2018-06-15T23:36:18.505Z,69.74
2018-06-15T23:38:47.237Z,71.00
2018-06-15T23:41:15.787Z,71.23
2018-06-15T23:43:44.415Z,70.49
2018-06-15T23:46:13.296Z,70.33
2018-06-15T23:48:41.950Z,70.69
2018-06-15T23:51:10.576Z,70.95
2018-06-15T23:53:39.308Z,71.41
2018-06-15T23:56:08.118Z,71.31
2018-06-15T23:58:36.976Z,71.52
